Time;durP1;ratioP1;P1;durP2;ratioP2;P2;SDS_P1;SDS_P2;PMS_P1;PMS_P2;Temp;Humidity;BMP_temperature;BMP_pressure;BME280_temperature;BME280_humidity;BME280_pressure;Samples;Min_cycle;Max_cycle;Signal;HPM_P1;HPM_P2
2022/07/17 00:00:47;;;;;;;5.37;1.20;;;14.40;99.90;;;;;;5016744;28;20224;-40
2022/07/17 00:03:14;;;;;;;4.10;1.20;;;14.40;99.90;;;;;;5015482;28;20224;-41
2022/07/17 00:05:41;;;;;;;6.80;1.30;;;14.30;99.90;;;;;;5014525;28;20185;-39
2022/07/17 00:08:07;;;;;;;3.87;1.00;;;14.30;99.90;;;;;;5014694;28;20220;-39
2022/07/17 00:10:34;;;;;;;6.40;1.20;;;14.30;99.90;;;;;;5014222;28;20216;-40
2022/07/17 00:13:00;;;;;;;2.57;1.20;;;14.20;99.90;;;;;;5014328;28;20708;-41
2022/07/17 00:15:26;;;;;;;1.93;1.00;;;14.20;99.90;;;;;;5014289;28;20186;-41
2022/07/17 00:17:52;;;;;;;5.23;0.90;;;14.20;99.90;;;;;;5014259;28;20186;-39
2022/07/17 00:20:17;;;;;;;1.73;1.20;;;14.20;99.90;;;;;;5012907;28;20565;-40
2022/07/17 00:22:43;;;;;;;3.50;1.33;;;14.20;99.90;;;;;;5014230;28;20182;-38
2022/07/17 00:25:10;;;;;;;5.47;1.20;;;14.20;99.90;;;;;;5014427;28;20177;-38
2022/07/17 00:27:36;;;;;;;2.63;1.13;;;14.20;99.90;;;;;;5014656;28;20209;-43
2022/07/17 00:30:03;;;;;;;2.47;1.20;;;14.10;99.90;;;;;;5029974;28;20208;-46
2022/07/17 00:32:29;;;;;;;5.57;1.03;;;14.10;99.90;;;;;;5014604;28;20213;-46
2022/07/17 00:34:55;;;;;;;4.57;1.07;;;14.10;99.90;;;;;;5014543;28;20232;-44
2022/07/17 00:37:21;;;;;;;2.20;1.20;;;14.00;99.90;;;;;;5014743;28;20664;-43
2022/07/17 00:39:46;;;;;;;2.47;1.17;;;14.10;99.90;;;;;;5014783;28;20297;-44
2022/07/17 00:42:13;;;;;;;1.97;1.20;;;13.90;99.90;;;;;;5014679;28;20189;-44
2022/07/17 00:44:40;;;;;;;3.13;0.90;;;13.80;99.90;;;;;;5014517;28;20183;-44
2022/07/17 00:47:18;;;;;;;3.93;1.00;;;13.70;99.90;;;;;;5014416;28;20188;-44
2022/07/17 00:49:44;;;;;;;1.20;0.77;;;13.60;99.90;;;;;;5014219;28;20209;-45
2022/07/17 00:52:11;;;;;;;4.00;1.20;;;13.50;99.90;;;;;;5014502;28;20252;-45
2022/07/17 00:54:38;;;;;;;4.20;1.10;;;13.40;99.90;;;;;;5014474;28;20174;-44
2022/07/17 00:57:09;;;;;;;2.73;0.70;;;13.20;99.90;;;;;;5014644;28;20209;-43
2022/07/17 00:59:41;;;;;;;4.93;0.97;;;13.10;99.90;;;;;;5015361;28;20204;-44
2022/07/17 01:02:09;;;;;;;1.77;0.90;;;13.10;99.90;;;;;;5014791;28;20182;-45
2022/07/17 01:04:35;;;;;;;1.60;1.00;;;13.00;99.90;;;;;;5014532;28;20189;-46
2022/07/17 01:07:02;;;;;;;1.43;0.90;;;13.00;99.90;;;;;;5014979;28;20602;-44
2022/07/17 01:09:29;;;;;;;1.70;0.90;;;12.90;99.90;;;;;;5014487;28;20220;-43
2022/07/17 01:11:55;;;;;;;2.33;1.20;;;12.80;99.90;;;;;;5014308;28;20291;-43
2022/07/17 01:14:23;;;;;;;3.50;1.00;;;12.70;99.90;;;;;;5014597;28;20316;-45
2022/07/17 01:16:49;;;;;;;2.10;0.97;;;12.70;99.90;;;;;;5016657;28;20180;-44
2022/07/17 01:19:15;;;;;;;2.17;1.00;;;12.60;99.90;;;;;;5018520;28;20221;-46
2022/07/17 01:21:45;;;;;;;2.17;1.13;;;12.50;99.90;;;;;;5018873;28;20185;-43
2022/07/17 01:24:11;;;;;;;2.13;1.03;;;12.50;99.90;;;;;;5019150;28;20174;-44
2022/07/17 01:26:40;;;;;;;2.87;1.10;;;12.40;99.90;;;;;;5019252;28;20268;-45
2022/07/17 01:29:06;;;;;;;2.30;1.13;;;12.40;99.90;;;;;;5019074;28;20197;-45
2022/07/17 01:31:31;;;;;;;4.20;1.37;;;12.40;99.90;;;;;;5019022;28;20209;-45
2022/07/17 01:34:00;;;;;;;3.17;1.40;;;12.40;99.90;;;;;;5018868;28;20169;-45
2022/07/17 01:36:26;;;;;;;3.77;1.00;;;12.30;99.90;;;;;;5019473;28;20185;-44
2022/07/17 01:38:51;;;;;;;3.83;1.13;;;12.20;99.90;;;;;;5019012;28;20181;-45
2022/07/17 01:41:17;;;;;;;1.63;0.80;;;12.20;99.90;;;;;;5019388;28;20280;-44
2022/07/17 01:43:43;;;;;;;4.33;1.23;;;12.10;99.90;;;;;;5019562;28;20209;-43
2022/07/17 01:46:08;;;;;;;4.00;1.33;;;12.10;99.90;;;;;;5017746;28;20193;-45
2022/07/17 01:48:34;;;;;;;2.63;1.10;;;12.00;99.90;;;;;;5019664;28;20188;-45
2022/07/17 01:51:00;;;;;;;1.97;1.10;;;12.00;99.90;;;;;;5019247;28;20264;-45
2022/07/17 01:53:25;;;;;;;1.87;1.10;;;11.90;99.90;;;;;;5018699;28;20229;-43
2022/07/17 01:55:51;;;;;;;8.10;1.30;;;11.90;99.90;;;;;;5018897;28;20201;-44
2022/07/17 01:58:17;;;;;;;1.60;0.90;;;11.80;99.90;;;;;;5019398;28;20184;-45
2022/07/17 02:00:43;;;;;;;3.17;1.30;;;11.80;99.90;;;;;;5018675;28;20204;-40
2022/07/17 02:03:09;;;;;;;2.40;0.90;;;11.70;99.90;;;;;;5016902;28;20725;-40
2022/07/17 02:05:35;;;;;;;1.00;0.70;;;11.60;99.90;;;;;;5017138;28;20264;-39
2022/07/17 02:08:00;;;;;;;4.13;1.10;;;11.60;99.90;;;;;;5016859;28;20182;-39
2022/07/17 02:10:27;;;;;;;1.27;1.10;;;11.50;99.90;;;;;;5017087;28;20608;-40
2022/07/17 02:12:52;;;;;;;1.70;1.10;;;11.50;99.90;;;;;;5016894;28;20177;-40
2022/07/17 02:15:18;;;;;;;3.40;1.00;;;11.40;99.90;;;;;;5016589;28;20185;-39
2022/07/17 02:17:43;;;;;;;3.87;1.10;;;11.40;99.90;;;;;;5016483;28;20185;-38
2022/07/17 02:20:11;;;;;;;1.43;1.00;;;11.30;99.90;;;;;;5016607;28;20237;-38
2022/07/17 02:22:38;;;;;;;1.40;0.97;;;11.20;99.90;;;;;;5016405;28;20184;-40
2022/07/17 02:25:04;;;;;;;2.93;1.13;;;11.20;99.90;;;;;;5016330;28;20631;-39
2022/07/17 02:27:31;;;;;;;4.50;1.23;;;11.10;99.90;;;;;;5015966;28;20200;-38
2022/07/17 02:29:57;;;;;;;2.13;1.10;;;11.00;99.90;;;;;;5016260;28;20276;-40
2022/07/17 02:32:23;;;;;;;1.40;0.97;;;11.00;99.90;;;;;;5016436;28;20210;-40
2022/07/17 02:34:48;;;;;;;1.93;1.00;;;11.00;99.90;;;;;;5016368;28;20186;-41
2022/07/17 02:37:14;;;;;;;2.30;1.00;;;11.00;99.90;;;;;;5016686;28;20213;-41
2022/07/17 02:39:52;;;;;;;3.27;1.17;;;10.90;99.90;;;;;;5016245;28;20225;-39
2022/07/17 02:42:19;;;;;;;1.87;1.07;;;10.90;99.90;;;;;;5016518;28;20194;-39
2022/07/17 02:44:44;;;;;;;2.63;0.90;;;10.90;99.90;;;;;;5016810;28;20193;-37
2022/07/17 02:47:10;;;;;;;3.10;1.10;;;10.90;99.90;;;;;;5016554;28;20276;-37
2022/07/17 02:49:35;;;;;;;3.00;1.17;;;10.90;99.90;;;;;;5016750;28;20206;-38
2022/07/17 02:52:01;;;;;;;2.17;1.07;;;10.90;99.90;;;;;;5016383;28;20208;-37
2022/07/17 02:54:27;;;;;;;1.50;0.93;;;10.80;99.90;;;;;;5016195;28;20188;-38
2022/07/17 02:56:52;;;;;;;2.97;1.10;;;10.80;99.90;;;;;;5015978;28;20219;-37
2022/07/17 02:59:18;;;;;;;3.60;1.00;;;10.80;99.90;;;;;;5016010;28;20568;-37
2022/07/17 03:01:43;;;;;;;2.73;0.90;;;10.80;99.90;;;;;;5015356;28;20189;-38
2022/07/17 03:04:09;;;;;;;1.93;0.80;;;10.70;99.90;;;;;;5015639;28;20182;-38
2022/07/17 03:06:34;;;;;;;5.20;1.30;;;10.60;99.90;;;;;;5015688;28;20188;-39
2022/07/17 03:09:00;;;;;;;2.07;1.17;;;10.60;99.90;;;;;;5014253;28;20642;-38
2022/07/17 03:11:26;;;;;;;1.17;1.03;;;10.50;99.90;;;;;;5015709;28;20252;-38
2022/07/17 03:13:51;;;;;;;3.67;1.23;;;10.40;99.90;;;;;;5015941;28;20205;-37
2022/07/17 03:16:17;;;;;;;2.17;1.30;;;10.40;99.90;;;;;;5015915;28;20682;-40
2022/07/17 03:18:42;;;;;;;3.77;1.10;;;10.30;99.90;;;;;;5015856;28;20182;-39
2022/07/17 03:21:08;;;;;;;2.40;1.17;;;10.20;99.90;;;;;;5015474;28;20201;-38
2022/07/17 03:23:33;;;;;;;2.43;1.10;;;10.20;99.90;;;;;;5015885;28;20203;-39
2022/07/17 03:25:59;;;;;;;3.03;0.97;;;10.20;99.90;;;;;;5016053;28;20612;-38
2022/07/17 03:28:25;;;;;;;1.97;1.10;;;10.20;99.90;;;;;;5015307;28;20198;-39
2022/07/17 03:30:50;;;;;;;3.63;1.20;;;10.10;99.90;;;;;;5015166;28;20550;-40
2022/07/17 03:33:16;;;;;;;1.47;1.20;;;10.10;99.90;;;;;;5015046;28;20638;-37
2022/07/17 03:35:42;;;;;;;1.47;1.00;;;10.10;99.90;;;;;;5030285;28;20181;-38
2022/07/17 03:38:07;;;;;;;2.13;1.20;;;10.10;99.90;;;;;;5014881;28;20204;-40
2022/07/17 03:40:33;;;;;;;3.20;1.20;;;10.10;99.90;;;;;;5014286;28;20208;-38
2022/07/17 03:42:58;;;;;;;2.67;1.10;;;10.00;99.90;;;;;;5014702;28;20634;-39
2022/07/17 03:45:24;;;;;;;1.90;1.07;;;10.00;99.90;;;;;;5014644;28;20239;-37
2022/07/17 03:47:50;;;;;;;4.57;1.30;;;10.00;99.90;;;;;;5014927;28;20548;-38
2022/07/17 03:50:15;;;;;;;2.13;1.27;;;10.00;99.90;;;;;;5013234;28;20201;-40
2022/07/17 03:52:41;;;;;;;4.40;1.40;;;10.00;99.90;;;;;;5015319;28;20251;-40
2022/07/17 03:55:07;;;;;;;1.77;0.90;;;10.00;99.90;;;;;;5014557;28;20185;-39
2022/07/17 03:57:33;;;;;;;1.50;1.00;;;10.00;99.90;;;;;;5014556;28;20181;-40
2022/07/17 03:59:58;;;;;;;1.90;1.10;;;10.00;99.90;;;;;;5016176;28;20205;-38
2022/07/17 04:02:24;;;;;;;3.40;1.17;;;10.00;99.90;;;;;;5014959;28;20539;-41
2022/07/17 04:04:49;;;;;;;3.23;1.20;;;10.00;99.90;;;;;;5014480;28;20261;-41
2022/07/17 04:07:27;;;;;;;1.80;1.13;;;10.00;99.90;;;;;;5014682;28;20192;-41
2022/07/17 04:09:58;;;;;;;2.10;1.70;;;10.00;99.90;;;;;;5014393;28;20208;-39
2022/07/17 04:12:24;;;;;;;2.67;1.40;;;10.00;99.90;;;;;;5014275;28;20201;-40
2022/07/17 04:14:49;;;;;;;3.07;1.47;;;10.00;99.90;;;;;;5014647;28;20520;-40
2022/07/17 04:17:15;;;;;;;2.33;1.20;;;10.00;99.90;;;;;;5014562;28;20188;-41
2022/07/17 04:19:41;;;;;;;2.03;1.10;;;10.00;99.90;;;;;;5014353;28;20229;-41
2022/07/17 04:22:06;;;;;;;4.23;1.50;;;10.00;99.90;;;;;;5014785;28;20184;-40
2022/07/17 04:24:32;;;;;;;2.47;1.10;;;10.00;99.90;;;;;;5014303;28;20630;-39
2022/07/17 04:26:57;;;;;;;2.17;1.33;;;10.00;99.90;;;;;;5014177;28;20188;-39
2022/07/17 04:29:23;;;;;;;3.23;1.10;;;10.00;99.90;;;;;;5013970;28;20231;-37
2022/07/17 04:31:49;;;;;;;10.23;1.23;;;10.00;99.90;;;;;;5012913;28;20664;-38
2022/07/17 04:34:14;;;;;;;3.87;1.10;;;10.00;99.90;;;;;;5014369;28;20192;-37
2022/07/17 04:36:40;;;;;;;7.70;1.23;;;10.00;99.90;;;;;;5014434;28;20700;-38
2022/07/17 04:39:06;;;;;;;2.70;1.17;;;10.00;99.90;;;;;;5013792;28;20242;-40
2022/07/17 04:41:31;;;;;;;2.53;1.13;;;10.00;99.90;;;;;;5013905;28;20643;-38
2022/07/17 04:43:57;;;;;;;3.03;1.47;;;10.00;99.90;;;;;;5014267;28;20189;-39
2022/07/17 04:46:22;;;;;;;5.63;1.60;;;10.00;99.90;;;;;;5012508;28;20668;-37
2022/07/17 04:48:48;;;;;;;4.37;1.30;;;10.00;99.90;;;;;;5013779;28;20185;-40
2022/07/17 04:51:13;;;;;;;1.90;1.27;;;10.10;99.90;;;;;;5012699;28;20227;-40
2022/07/17 04:53:39;;;;;;;4.40;1.50;;;10.10;99.90;;;;;;5013600;28;20188;-39
2022/07/17 04:56:05;;;;;;;1.77;1.20;;;10.20;99.90;;;;;;5013617;28;20187;-40
2022/07/17 04:58:30;;;;;;;3.33;1.40;;;10.20;99.90;;;;;;5013593;28;20204;-39
2022/07/17 05:00:56;;;;;;;4.17;1.60;;;10.20;99.90;;;;;;5014507;28;20208;-40
2022/07/17 05:03:21;;;;;;;2.60;1.50;;;10.40;99.90;;;;;;5013533;28;20185;-37
2022/07/17 05:05:47;;;;;;;7.10;1.70;;;10.30;99.90;;;;;;5012187;28;20284;-39
2022/07/17 05:08:12;;;;;;;2.23;1.30;;;10.40;99.90;;;;;;5013672;28;20250;-38
2022/07/17 05:10:38;;;;;;;3.13;1.63;;;10.50;99.90;;;;;;5013364;28;20243;-38
2022/07/17 05:13:04;;;;;;;4.87;1.80;;;10.60;99.90;;;;;;5014005;28;20234;-38
2022/07/17 05:15:29;;;;;;;2.07;1.40;;;10.60;99.90;;;;;;5013388;28;20227;-37
2022/07/17 05:17:55;;;;;;;3.80;1.50;;;10.70;99.90;;;;;;5013369;28;20178;-40
2022/07/17 05:20:21;;;;;;;4.00;1.73;;;10.80;99.90;;;;;;5013288;28;20688;-39
2022/07/17 05:22:46;;;;;;;4.53;1.67;;;10.80;99.90;;;;;;5013323;28;20622;-39
2022/07/17 05:25:12;;;;;;;5.20;1.93;;;11.00;99.90;;;;;;5013349;28;20176;-39
2022/07/17 05:27:37;;;;;;;3.10;1.40;;;11.00;99.90;;;;;;5013465;28;20197;-39
2022/07/17 05:30:03;;;;;;;3.60;1.80;;;11.20;99.90;;;;;;5013446;28;20208;-39
2022/07/17 05:32:29;;;;;;;5.10;1.87;;;11.30;99.90;;;;;;5013923;28;20548;-37
2022/07/17 05:34:54;;;;;;;4.43;1.83;;;11.40;99.90;;;;;;5013264;28;20181;-39
2022/07/17 05:37:20;;;;;;;2.90;1.80;;;11.50;99.90;;;;;;5013454;28;20538;-38
2022/07/17 05:39:46;;;;;;;5.93;2.40;;;11.70;99.90;;;;;;5013194;28;20196;-40
2022/07/17 05:42:11;;;;;;;5.17;2.27;;;11.80;99.90;;;;;;5013186;28;20185;-40
2022/07/17 05:44:37;;;;;;;5.40;2.57;;;11.90;99.90;;;;;;5013146;28;20176;-41
2022/07/17 05:47:02;;;;;;;5.20;2.20;;;12.00;99.90;;;;;;5013162;28;20644;-39
2022/07/17 05:49:28;;;;;;;9.00;2.50;;;12.20;99.90;;;;;;5013289;28;20611;-37
2022/07/17 05:51:53;;;;;;;6.83;2.40;;;12.30;99.90;;;;;;5012963;28;20716;-39
2022/07/17 05:54:19;;;;;;;4.23;2.30;;;12.30;99.90;;;;;;5013064;28;20250;-38
2022/07/17 05:56:45;;;;;;;6.90;2.20;;;12.60;99.90;;;;;;5013353;28;20276;-39
2022/07/17 05:59:11;;;;;;;5.73;2.20;;;12.70;99.90;;;;;;5012955;28;20188;-38
2022/07/17 06:01:36;;;;;;;3.23;2.10;;;12.70;99.90;;;;;;5014004;28;20185;-41
2022/07/17 06:04:02;;;;;;;7.23;2.00;;;12.80;99.90;;;;;;5017014;28;20641;-40
2022/07/17 06:06:27;;;;;;;3.13;2.10;;;13.00;99.90;;;;;;5018230;28;20189;-41
2022/07/17 06:08:53;;;;;;;6.77;2.00;;;13.10;99.90;;;;;;5018027;28;20195;-41
2022/07/17 06:11:19;;;;;;;6.13;2.43;;;13.20;99.90;;;;;;5017622;28;20205;-40
2022/07/17 06:13:44;;;;;;;5.83;1.87;;;13.40;99.90;;;;;;5017344;28;20182;-40
2022/07/17 06:16:10;;;;;;;6.13;2.10;;;13.60;99.90;;;;;;5016480;28;20178;-38
2022/07/17 06:18:35;;;;;;;4.03;1.77;;;13.70;99.90;;;;;;5016456;28;20691;-40
2022/07/17 06:21:01;;;;;;;4.13;2.10;;;13.90;99.90;;;;;;5016338;28;20559;-39
2022/07/17 06:23:26;;;;;;;7.47;2.33;;;14.10;99.90;;;;;;5016721;28;20255;-40
2022/07/17 06:25:52;;;;;;;8.33;2.83;;;14.40;99.90;;;;;;5016625;28;20576;-39
2022/07/17 06:28:17;;;;;;;5.67;2.10;;;14.50;99.90;;;;;;5016206;28;20217;-38
2022/07/17 06:30:43;;;;;;;5.90;2.27;;;14.80;99.90;;;;;;5016009;28;20209;-39
2022/07/17 06:33:09;;;;;;;3.53;2.20;;;15.00;99.90;;;;;;5016533;28;20212;-40
2022/07/17 06:35:34;;;;;;;5.13;2.30;;;15.10;99.90;;;;;;5016060;28;20182;-39
2022/07/17 06:38:01;;;;;;;5.80;2.30;;;15.40;99.90;;;;;;5016170;28;20224;-40
2022/07/17 06:40:27;;;;;;;5.43;2.23;;;15.70;99.90;;;;;;5016046;28;20196;-39
2022/07/17 06:42:53;;;;;;;6.13;2.07;;;16.20;99.90;;;;;;5016413;28;20173;-41
2022/07/17 06:45:18;;;;;;;5.10;2.00;;;16.50;99.90;;;;;;5016037;28;20198;-40
2022/07/17 06:47:44;;;;;;;5.43;2.20;;;16.90;99.90;;;;;;5016296;28;20182;-40
2022/07/17 06:50:10;;;;;;;8.37;2.30;;;17.10;99.90;;;;;;5016474;28;20201;-38
2022/07/17 06:52:36;;;;;;;5.90;1.57;;;17.40;99.90;;;;;;5016106;28;20267;-38
2022/07/17 06:55:01;;;;;;;5.23;1.67;;;17.60;99.90;;;;;;5015949;28;20668;-39
2022/07/17 06:57:27;;;;;;;5.33;2.07;;;17.90;99.90;;;;;;5015969;28;20180;-40
2022/07/17 06:59:53;;;;;;;6.20;2.30;;;18.20;99.90;;;;;;5016563;28;20323;-40
2022/07/17 07:02:18;;;;;;;4.70;2.23;;;18.50;99.90;;;;;;5014850;28;20311;-37
2022/07/17 07:04:44;;;;;;;9.87;2.20;;;18.80;99.90;;;;;;5015997;28;20193;-37
2022/07/17 07:07:10;;;;;;;5.10;1.63;;;19.10;99.90;;;;;;5015858;28;20188;-37
2022/07/17 07:09:36;;;;;;;4.87;1.57;;;19.30;99.90;;;;;;5015421;28;20237;-39
2022/07/17 07:12:02;;;;;;;5.13;1.73;;;19.50;99.90;;;;;;5015295;28;20205;-37
2022/07/17 07:14:28;;;;;;;4.27;1.80;;;19.70;99.90;;;;;;5015031;28;20177;-44
2022/07/17 07:16:53;;;;;;;5.47;2.10;;;19.80;99.90;;;;;;5016265;28;20188;-44
2022/07/17 07:19:19;;;;;;;7.17;2.30;;;19.90;99.90;;;;;;5016256;28;20525;-42
2022/07/17 07:21:45;;;;;;;6.33;2.10;;;20.10;99.90;;;;;;5016314;28;20182;-39
2022/07/17 07:24:10;;;;;;;3.67;1.47;;;20.30;99.90;;;;;;5016472;28;20180;-44
2022/07/17 07:26:36;;;;;;;4.03;1.57;;;20.40;99.90;;;;;;5017015;28;20649;-45
2022/07/17 07:29:01;;;;;;;4.43;1.73;;;20.50;99.90;;;;;;5016187;28;20197;-43
2022/07/17 07:31:27;;;;;;;3.30;1.70;;;20.60;99.90;;;;;;5016470;28;20201;-47
2022/07/17 07:33:53;;;;;;;6.13;1.57;;;20.80;99.90;;;;;;5031581;28;20173;-44
2022/07/17 07:36:18;;;;;;;9.50;2.17;;;21.00;99.90;;;;;;5015964;28;20178;-39
2022/07/17 07:38:45;;;;;;;4.47;2.00;;;21.10;99.90;;;;;;5015154;28;20261;-37
2022/07/17 07:41:11;;;;;;;5.10;1.67;;;21.20;99.90;;;;;;5014708;28;20707;-43
2022/07/17 07:43:36;;;;;;;4.57;1.30;;;21.30;99.90;;;;;;5015085;28;20182;-39
2022/07/17 07:46:03;;;;;;;5.77;1.60;;;21.40;99.90;;;;;;5014735;28;20181;-40
2022/07/17 07:48:29;;;;;;;5.80;1.73;;;21.60;99.90;;;;;;5029942;28;20178;-41
2022/07/17 07:50:54;;;;;;;4.37;1.80;;;21.80;99.90;;;;;;5014762;28;20677;-38
2022/07/17 07:53:20;;;;;;;5.03;1.50;;;21.90;99.90;;;;;;5014575;28;20177;-39
2022/07/17 07:55:46;;;;;;;2.93;1.43;;;22.00;99.90;;;;;;5014552;28;20185;-40
2022/07/17 07:58:12;;;;;;;4.07;1.47;;;22.10;99.90;;;;;;5014481;28;20182;-39
2022/07/17 08:00:40;;;;;;;4.90;1.50;;;22.30;99.90;;;;;;5014653;28;20629;-40
2022/07/17 08:03:06;;;;;;;2.63;1.40;;;22.50;99.90;;;;;;5014868;28;20564;-41
2022/07/17 08:05:33;;;;;;;3.67;1.63;;;22.70;99.90;;;;;;5014725;28;20178;-39
2022/07/17 08:07:59;;;;;;;4.43;1.30;;;22.80;99.90;;;;;;5014350;28;20201;-38
2022/07/17 08:10:25;;;;;;;2.60;1.20;;;23.00;99.90;;;;;;5014276;28;20201;-41
2022/07/17 08:12:51;;;;;;;3.10;1.10;;;23.20;99.90;;;;;;5014900;28;20170;-42
2022/07/17 08:15:18;;;;;;;3.77;1.00;;;23.20;99.90;;;;;;5014496;28;20240;-41
2022/07/17 08:17:45;;;;;;;5.50;1.43;;;23.10;99.90;;;;;;5015145;28;20185;-41
2022/07/17 08:20:11;;;;;;;5.07;1.47;;;22.90;99.90;;;;;;5014965;28;20649;-41
2022/07/17 08:22:37;;;;;;;2.73;1.27;;;22.70;99.90;;;;;;5014872;28;20192;-38
2022/07/17 08:25:03;;;;;;;3.80;1.23;;;22.50;99.90;;;;;;5013868;28;20181;-40
2022/07/17 08:27:36;;;;;;;5.07;1.40;;;22.50;99.90;;;;;;5014186;28;20185;-41
2022/07/17 08:30:03;;;;;;;2.90;1.23;;;22.60;99.90;;;;;;5014173;28;20217;-40
2022/07/17 08:32:29;;;;;;;3.33;1.10;;;22.50;99.90;;;;;;5014206;28;20197;-38
2022/07/17 08:34:54;;;;;;;2.13;1.23;;;22.60;99.90;;;;;;5014850;28;20184;-44
2022/07/17 08:37:20;;;;;;;4.57;1.30;;;22.70;99.90;;;;;;5014777;28;20264;-45
2022/07/17 08:39:46;;;;;;;2.73;1.13;;;22.90;99.90;;;;;;5014274;28;20193;-44
2022/07/17 08:42:15;;;;;;;2.67;1.07;;;23.10;99.90;;;;;;5014736;28;20633;-44
2022/07/17 08:44:41;;;;;;;2.57;1.10;;;23.30;99.90;;;;;;5013352;28;20186;-44
2022/07/17 08:47:08;;;;;;;5.17;1.27;;;23.40;99.90;;;;;;5015289;28;20265;-44
2022/07/17 08:49:38;;;;;;;2.37;1.10;;;23.50;99.90;;;;;;5013857;28;20206;-43
2022/07/17 08:52:04;;;;;;;7.40;1.30;;;23.40;99.90;;;;;;5015042;28;20217;-43
2022/07/17 08:54:30;;;;;;;5.17;1.50;;;23.20;99.90;;;;;;5015502;28;20201;-45
2022/07/17 08:56:57;;;;;;;4.50;1.60;;;23.20;99.90;;;;;;5015052;28;20186;-44
2022/07/17 08:59:26;;;;;;;2.07;1.10;;;23.20;99.90;;;;;;5014859;28;20201;-46
2022/07/17 09:01:51;;;;;;;4.17;1.50;;;23.10;99.90;;;;;;5015220;28;20274;-44
2022/07/17 09:04:17;;;;;;;3.30;1.40;;;23.10;99.90;;;;;;5014550;28;20166;-44
2022/07/17 09:06:43;;;;;;;4.20;1.33;;;23.10;99.90;;;;;;5014396;28;20536;-45
2022/07/17 09:09:11;;;;;;;4.67;1.50;;;23.10;99.90;;;;;;5014410;28;20648;-44
2022/07/17 09:11:54;;;;;;;2.80;1.27;;;23.00;99.90;;;;;;5014141;28;20689;-44
2022/07/17 09:14:20;;;;;;;5.33;1.30;;;23.10;99.90;;;;;;5013090;28;20185;-45
2022/07/17 09:16:49;;;;;;;5.10;1.40;;;23.40;99.90;;;;;;5014742;28;20180;-44
2022/07/17 09:19:26;;;;;;;3.43;1.33;;;23.70;99.90;;;;;;5014556;28;20212;-44
2022/07/17 09:22:02;;;;;;;4.00;1.30;;;24.00;99.90;;;;;;5014898;28;20177;-46
2022/07/17 09:24:40;;;;;;;3.53;1.07;;;24.30;99.90;;;;;;5015387;28;20252;-44
2022/07/17 09:27:06;;;;;;;5.80;1.60;;;24.70;99.90;;;;;;5015828;28;20170;-44
2022/07/17 09:29:31;;;;;;;5.93;1.20;;;24.90;99.90;;;;;;5015901;28;20773;-44
2022/07/17 09:31:57;;;;;;;3.87;1.17;;;25.00;99.90;;;;;;5015049;28;20225;-46
2022/07/17 09:34:23;;;;;;;4.67;1.40;;;25.20;99.90;;;;;;5016737;28;20178;-45
2022/07/17 09:37:01;;;;;;;2.93;1.10;;;25.20;99.90;;;;;;5017834;28;20261;-44
2022/07/17 09:39:39;;;;;;;4.63;1.00;;;25.40;99.90;;;;;;5036278;28;20205;-45
2022/07/17 09:42:05;;;;;;;3.67;1.47;;;25.50;99.00;;;;;;5036535;28;20242;-45
2022/07/17 09:44:31;;;;;;;4.37;1.30;;;25.30;99.20;;;;;;5021955;28;20260;-45
2022/07/17 09:46:57;;;;;;;6.63;1.40;;;25.40;97.60;;;;;;5020427;28;20215;-40
2022/07/17 09:49:28;;;;;;;4.90;1.40;;;25.20;96.50;;;;;;5017685;28;20197;-40
2022/07/17 09:51:54;;;;;;;5.43;1.40;;;24.90;97.30;;;;;;5017721;28;20229;-42
2022/07/17 09:54:21;;;;;;;3.33;1.10;;;24.80;96.20;;;;;;5018384;28;20240;-41
2022/07/17 09:56:50;;;;;;;3.50;1.20;;;24.60;96.90;;;;;;5019694;28;20669;-40
2022/07/17 09:59:18;;;;;;;2.67;1.13;;;24.50;99.60;;;;;;5017839;28;20331;-41
2022/07/17 10:01:48;;;;;;;6.53;1.50;;;24.80;99.50;;;;;;5019148;28;20189;-39
2022/07/17 10:04:16;;;;;;;2.73;1.20;;;25.00;96.70;;;;;;5017786;28;20193;-39
2022/07/17 10:06:42;;;;;;;3.83;1.30;;;24.70;96.70;;;;;;5018776;28;20191;-45
2022/07/17 10:09:09;;;;;;;4.17;1.37;;;24.70;98.90;;;;;;5020065;28;20240;-40
2022/07/17 10:11:37;;;;;;;2.03;1.10;;;24.90;99.10;;;;;;5018042;28;20206;-41
2022/07/17 10:14:05;;;;;;;6.00;1.43;;;25.10;96.00;;;;;;5017351;28;20201;-41
2022/07/17 10:16:33;;;;;;;3.13;1.30;;;24.90;95.90;;;;;;5017182;28;20201;-37
2022/07/17 10:19:00;;;;;;;6.70;1.70;;;24.90;96.30;;;;;;5017779;28;20673;-41
2022/07/17 10:21:28;;;;;;;3.13;1.15;;;24.90;96.90;;;;;;5017551;28;20657;-40
2022/07/17 10:23:53;;;;;;;3.30;1.00;;;25.10;98.50;;;;;;5017033;28;20186;-42
2022/07/17 10:26:38;;;;;;;2.78;1.42;;;25.40;98.20;;;;;;5017046;28;20573;-39
2022/07/17 10:29:09;;;;;;;2.88;1.40;;;25.60;95.90;;;;;;5017067;28;20205;-42
2022/07/17 10:31:34;;;;;;;3.83;1.40;;;25.50;96.10;;;;;;5016824;28;20201;-43
2022/07/17 10:34:04;;;;;;;4.25;1.30;;;25.50;98.20;;;;;;5016583;28;20285;-44
2022/07/17 10:36:41;;;;;;;5.75;1.63;;;25.60;98.10;;;;;;5017562;28;20178;-43
2022/07/17 10:39:11;;;;;;;3.15;1.58;;;25.80;97.70;;;;;;5016741;28;20162;-42
2022/07/17 10:41:38;;;;;;;4.10;1.30;;;25.70;94.60;;;;;;5031727;28;20182;-42
2022/07/17 10:44:04;;;;;;;2.65;1.40;;;25.60;95.90;;;;;;5016601;28;20545;-43
2022/07/17 10:46:29;;;;;;;4.30;1.25;;;25.60;95.40;;;;;;5016615;28;20208;-43
2022/07/17 10:48:56;;;;;;;3.33;1.50;;;25.70;97.10;;;;;;5017390;28;20181;-42
2022/07/17 10:51:24;;;;;;;3.42;1.50;;;26.00;97.40;;;;;;5016640;28;20213;-44
2022/07/17 10:53:50;;;;;;;2.33;1.50;;;26.10;96.10;;;;;;5016272;28;20173;-43
2022/07/17 10:56:17;;;;;;;4.03;2.08;;;26.30;95.70;;;;;;5016205;28;20269;-43
2022/07/17 10:58:44;;;;;;;4.95;1.67;;;26.10;93.90;;;;;;5016654;28;20263;-43
2022/07/17 11:01:12;;;;;;;3.30;1.52;;;26.00;95.10;;;;;;5018592;28;20708;-45
2022/07/17 11:03:44;;;;;;;4.72;1.55;;;25.90;95.90;;;;;;5018064;28;20189;-45
2022/07/17 11:06:12;;;;;;;3.30;1.20;;;25.70;93.90;;;;;;5017860;28;20193;-46
2022/07/17 11:08:42;;;;;;;6.03;1.60;;;25.80;94.90;;;;;;5017725;28;20650;-45
2022/07/17 11:11:08;;;;;;;3.70;1.40;;;25.90;94.80;;;;;;5017985;28;20221;-44
2022/07/17 11:13:34;;;;;;;5.72;1.52;;;26.00;93.80;;;;;;5017636;28;20177;-44
2022/07/17 11:16:00;;;;;;;2.35;1.40;;;26.10;94.90;;;;;;5017488;28;20530;-45
2022/07/17 11:18:25;;;;;;;6.57;1.67;;;26.20;97.40;;;;;;5017847;28;20185;-46
2022/07/17 11:20:56;;;;;;;3.85;1.30;;;26.20;93.90;;;;;;5017709;28;20194;-46
2022/07/17 11:23:26;;;;;;;2.58;1.20;;;26.30;96.20;;;;;;5017896;28;20202;-46
2022/07/17 11:26:09;;;;;;;3.33;1.42;;;26.40;94.10;;;;;;5018054;28;20174;-46
2022/07/17 11:28:36;;;;;;;3.35;1.60;;;26.20;91.40;;;;;;5017034;28;20201;-44
2022/07/17 11:31:15;;;;;;;6.07;1.65;;;26.10;91.70;;;;;;5017119;28;20206;-46
2022/07/17 11:33:50;;;;;;;3.20;1.60;;;25.90;91.20;;;;;;5017609;28;20165;-46
2022/07/17 11:36:26;;;;;;;8.93;1.23;;;25.70;92.70;;;;;;5017221;28;20161;-45
2022/07/17 11:38:53;;;;;;;3.60;1.65;;;25.80;92.90;;;;;;5016554;28;20308;-44
2022/07/17 11:41:19;;;;;;;7.13;1.73;;;25.90;92.10;;;;;;5017288;28;20205;-45
2022/07/17 11:43:46;;;;;;;5.43;1.77;;;25.90;95.50;;;;;;5019109;28;20614;-45
2022/07/17 11:46:12;;;;;;;4.72;1.30;;;26.20;94.00;;;;;;5018590;28;20186;-45
2022/07/17 11:48:41;;;;;;;4.10;1.60;;;26.30;93.40;;;;;;5018646;28;20185;-46
2022/07/17 11:51:07;;;;;;;6.15;1.52;;;26.40;89.80;;;;;;5032793;28;20568;-46
2022/07/17 11:53:37;;;;;;;5.50;1.42;;;26.40;88.50;;;;;;5016489;28;20196;-44
2022/07/17 11:56:04;;;;;;;3.80;1.40;;;26.30;91.90;;;;;;5016631;28;20244;-44
2022/07/17 11:58:42;;;;;;;6.25;1.30;;;26.50;91.90;;;;;;5016981;28;20197;-45
2022/07/17 12:01:08;;;;;;;1.75;1.00;;;26.70;91.50;;;;;;5015545;28;20190;-41
2022/07/17 12:03:34;;;;;;;2.75;1.23;;;26.60;88.70;;;;;;5014894;28;20181;-41
2022/07/17 12:06:00;;;;;;;3.30;1.27;;;26.60;92.50;;;;;;5015009;28;20633;-41
2022/07/17 12:08:25;;;;;;;2.50;1.35;;;26.70;88.90;;;;;;5015303;28;20170;-41
2022/07/17 12:11:02;;;;;;;2.90;1.35;;;26.60;90.90;;;;;;5014412;28;20201;-40
2022/07/17 12:13:39;;;;;;;2.25;1.30;;;26.80;91.60;;;;;;5014926;28;20173;-43
2022/07/17 12:16:18;;;;;;;3.20;1.48;;;26.90;94.00;;;;;;5030010;28;20181;-43
2022/07/17 12:18:55;;;;;;;3.47;1.20;;;27.30;94.10;;;;;;5030193;28;20646;-42
2022/07/17 12:21:21;;;;;;;2.50;1.30;;;27.50;94.40;;;;;;5014961;28;20173;-43
2022/07/17 12:23:58;;;;;;;2.97;1.50;;;27.60;91.20;;;;;;5014701;28;20193;-42
2022/07/17 12:26:24;;;;;;;3.50;1.27;;;27.70;93.40;;;;;;5014914;28;20294;-43
2022/07/17 12:28:50;;;;;;;3.15;1.40;;;27.80;91.80;;;;;;5014806;28;20200;-41
2022/07/17 12:31:16;;;;;;;3.38;1.42;;;27.90;91.90;;;;;;5014493;28;20568;-41
2022/07/17 12:33:41;;;;;;;4.43;1.30;;;27.90;90.60;;;;;;5013234;28;20177;-43
2022/07/17 12:36:08;;;;;;;4.25;1.20;;;27.90;90.00;;;;;;5014848;28;20181;-44
2022/07/17 12:38:33;;;;;;;3.17;1.23;;;27.90;90.70;;;;;;5014728;28;20184;-43
2022/07/17 12:40:59;;;;;;;2.65;1.48;;;28.00;90.80;;;;;;5014501;28;20284;-42
2022/07/17 12:43:25;;;;;;;4.32;1.40;;;28.10;91.10;;;;;;5014663;28;20181;-41
2022/07/17 12:45:51;;;;;;;3.33;1.60;;;28.20;90.50;;;;;;5014548;28;20186;-44